sensor_id;sensor_type;location;lat;lon;timestamp;P1;durP1;ratioP1;P2;durP2;ratioP2
11596;SDS011;5854;48.072;16.286;2023-02-18T00:01:36;1.30;;;1.05;;
11596;SDS011;5854;48.072;16.286;2023-02-18T00:04:03;1.00;;;0.90;;
11596;SDS011;5854;48.072;16.286;2023-02-18T00:06:31;2.58;;;1.10;;
11596;SDS011;5854;48.072;16.286;2023-02-18T00:09:02;0.88;;;0.75;;
11596;SDS011;5854;48.072;16.286;2023-02-18T00:11:32;1.30;;;1.20;;
11596;SDS011;5854;48.072;16.286;2023-02-18T00:16:31;1.00;;;1.00;;
11596;SDS011;5854;48.072;16.286;2023-02-18T00:18:59;1.17;;;1.00;;
11596;SDS011;5854;48.072;16.286;2023-02-18T00:21:28;0.80;;;0.80;;
11596;SDS011;5854;48.072;16.286;2023-02-18T00:23:56;0.85;;;0.85;;
11596;SDS011;5854;48.072;16.286;2023-02-18T00:26:23;1.08;;;0.82;;
11596;SDS011;5854;48.072;16.286;2023-02-18T00:28:52;1.10;;;0.80;;
11596;SDS011;5854;48.072;16.286;2023-02-18T00:31:21;1.00;;;1.00;;
11596;SDS011;5854;48.072;16.286;2023-02-18T00:33:50;1.85;;;0.93;;
11596;SDS011;5854;48.072;16.286;2023-02-18T00:36:17;1.42;;;0.90;;
11596;SDS011;5854;48.072;16.286;2023-02-18T00:38:47;0.80;;;0.80;;
11596;SDS011;5854;48.072;16.286;2023-02-18T00:41:16;0.80;;;0.80;;
11596;SDS011;5854;48.072;16.286;2023-02-18T00:43:44;4.38;;;1.02;;
11596;SDS011;5854;48.072;16.286;2023-02-18T00:46:13;1.00;;;0.90;;
11596;SDS011;5854;48.072;16.286;2023-02-18T00:48:41;1.52;;;1.00;;
11596;SDS011;5854;48.072;16.286;2023-02-18T00:51:09;1.95;;;0.98;;
11596;SDS011;5854;48.072;16.286;2023-02-18T00:53:37;0.98;;;0.90;;
11596;SDS011;5854;48.072;16.286;2023-02-18T00:56:06;0.93;;;0.82;;
11596;SDS011;5854;48.072;16.286;2023-02-18T00:58:33;1.08;;;0.98;;
11596;SDS011;5854;48.072;16.286;2023-02-18T01:01:01;0.93;;;0.90;;
11596;SDS011;5854;48.072;16.286;2023-02-18T01:03:30;0.77;;;0.77;;
11596;SDS011;5854;48.072;16.286;2023-02-18T01:05:57;0.80;;;0.80;;
11596;SDS011;5854;48.072;16.286;2023-02-18T01:08:25;0.80;;;0.80;;
11596;SDS011;5854;48.072;16.286;2023-02-18T01:10:52;1.08;;;0.90;;
11596;SDS011;5854;48.072;16.286;2023-02-18T01:13:21;1.27;;;0.80;;
11596;SDS011;5854;48.072;16.286;2023-02-18T01:15:48;0.73;;;0.73;;
11596;SDS011;5854;48.072;16.286;2023-02-18T01:18:16;3.38;;;1.13;;
11596;SDS011;5854;48.072;16.286;2023-02-18T01:20:47;1.15;;;0.98;;
11596;SDS011;5854;48.072;16.286;2023-02-18T01:23:14;1.00;;;0.90;;
11596;SDS011;5854;48.072;16.286;2023-02-18T01:25:42;1.10;;;0.82;;
11596;SDS011;5854;48.072;16.286;2023-02-18T01:28:11;0.88;;;0.75;;
11596;SDS011;5854;48.072;16.286;2023-02-18T01:30:39;1.55;;;1.00;;
11596;SDS011;5854;48.072;16.286;2023-02-18T01:33:07;1.10;;;0.90;;
11596;SDS011;5854;48.072;16.286;2023-02-18T01:35:36;1.33;;;1.10;;
11596;SDS011;5854;48.072;16.286;2023-02-18T01:38:05;1.00;;;1.00;;
11596;SDS011;5854;48.072;16.286;2023-02-18T01:40:33;1.05;;;1.05;;
11596;SDS011;5854;48.072;16.286;2023-02-18T01:43:00;1.95;;;1.10;;
11596;SDS011;5854;48.072;16.286;2023-02-18T01:48:28;1.15;;;1.05;;
11596;SDS011;5854;48.072;16.286;2023-02-18T01:51:00;1.10;;;1.00;;
11596;SDS011;5854;48.072;16.286;2023-02-18T01:53:36;2.08;;;1.10;;
11596;SDS011;5854;48.072;16.286;2023-02-18T01:56:10;1.00;;;0.90;;
11596;SDS011;5854;48.072;16.286;2023-02-18T01:58:41;1.20;;;1.05;;
11596;SDS011;5854;48.072;16.286;2023-02-18T02:01:09;1.10;;;1.08;;
11596;SDS011;5854;48.072;16.286;2023-02-18T02:03:37;1.13;;;1.10;;
11596;SDS011;5854;48.072;16.286;2023-02-18T02:06:05;2.10;;;1.17;;
11596;SDS011;5854;48.072;16.286;2023-02-18T02:08:41;0.80;;;0.80;;
11596;SDS011;5854;48.072;16.286;2023-02-18T02:11:13;1.55;;;1.45;;
11596;SDS011;5854;48.072;16.286;2023-02-18T02:16:43;3.30;;;1.15;;
11596;SDS011;5854;48.072;16.286;2023-02-18T02:19:33;1.13;;;1.00;;
11596;SDS011;5854;48.072;16.286;2023-02-18T02:22:42;2.22;;;0.90;;
11596;SDS011;5854;48.072;16.286;2023-02-18T02:25:58;0.83;;;0.83;;
11596;SDS011;5854;48.072;16.286;2023-02-18T02:36:01;1.30;;;1.20;;
11596;SDS011;5854;48.072;16.286;2023-02-18T02:38:33;1.20;;;1.10;;
11596;SDS011;5854;48.072;16.286;2023-02-18T02:41:12;1.10;;;1.00;;
11596;SDS011;5854;48.072;16.286;2023-02-18T02:43:51;0.98;;;0.98;;
11596;SDS011;5854;48.072;16.286;2023-02-18T02:46:30;1.10;;;1.00;;
11596;SDS011;5854;48.072;16.286;2023-02-18T02:49:07;2.60;;;1.20;;
11596;SDS011;5854;48.072;16.286;2023-02-18T02:51:43;1.65;;;0.90;;
11596;SDS011;5854;48.072;16.286;2023-02-18T02:54:18;2.67;;;1.10;;
11596;SDS011;5854;48.072;16.286;2023-02-18T02:59:15;2.22;;;1.05;;
11596;SDS011;5854;48.072;16.286;2023-02-18T03:01:50;1.13;;;1.13;;
11596;SDS011;5854;48.072;16.286;2023-02-18T03:04:39;1.50;;;1.02;;
11596;SDS011;5854;48.072;16.286;2023-02-18T03:10:31;1.10;;;1.00;;
11596;SDS011;5854;48.072;16.286;2023-02-18T03:13:20;1.40;;;1.00;;
11596;SDS011;5854;48.072;16.286;2023-02-18T03:15:59;0.85;;;0.85;;
11596;SDS011;5854;48.072;16.286;2023-02-18T03:18:39;1.17;;;1.05;;
11596;SDS011;5854;48.072;16.286;2023-02-18T03:21:11;1.58;;;1.10;;
11596;SDS011;5854;48.072;16.286;2023-02-18T03:23:45;1.52;;;1.25;;
11596;SDS011;5854;48.072;16.286;2023-02-18T03:26:18;1.73;;;1.10;;
11596;SDS011;5854;48.072;16.286;2023-02-18T03:28:47;1.60;;;1.20;;
11596;SDS011;5854;48.072;16.286;2023-02-18T03:31:17;2.28;;;1.25;;
11596;SDS011;5854;48.072;16.286;2023-02-18T03:33:47;2.70;;;1.00;;
11596;SDS011;5854;48.072;16.286;2023-02-18T03:36:18;1.27;;;1.17;;
11596;SDS011;5854;48.072;16.286;2023-02-18T03:38:50;1.20;;;1.10;;
11596;SDS011;5854;48.072;16.286;2023-02-18T03:41:21;2.15;;;1.00;;
11596;SDS011;5854;48.072;16.286;2023-02-18T03:43:49;1.33;;;1.00;;
11596;SDS011;5854;48.072;16.286;2023-02-18T03:46:16;4.82;;;1.35;;
11596;SDS011;5854;48.072;16.286;2023-02-18T03:48:44;1.10;;;1.00;;
11596;SDS011;5854;48.072;16.286;2023-02-18T03:51:11;1.30;;;1.20;;
11596;SDS011;5854;48.072;16.286;2023-02-18T03:53:38;1.00;;;0.90;;
11596;SDS011;5854;48.072;16.286;2023-02-18T03:56:07;2.10;;;1.27;;
11596;SDS011;5854;48.072;16.286;2023-02-18T03:58:34;2.70;;;0.90;;
11596;SDS011;5854;48.072;16.286;2023-02-18T04:01:01;0.90;;;0.90;;
11596;SDS011;5854;48.072;16.286;2023-02-18T04:03:28;1.00;;;1.00;;
11596;SDS011;5854;48.072;16.286;2023-02-18T04:05:55;1.17;;;1.08;;
11596;SDS011;5854;48.072;16.286;2023-02-18T04:08:23;1.60;;;1.13;;
11596;SDS011;5854;48.072;16.286;2023-02-18T04:10:51;3.40;;;1.00;;
11596;SDS011;5854;48.072;16.286;2023-02-18T04:13:19;0.98;;;0.98;;
11596;SDS011;5854;48.072;16.286;2023-02-18T04:15:47;1.13;;;0.85;;
11596;SDS011;5854;48.072;16.286;2023-02-18T04:18:15;1.00;;;0.93;;
11596;SDS011;5854;48.072;16.286;2023-02-18T04:20:43;2.58;;;0.98;;
11596;SDS011;5854;48.072;16.286;2023-02-18T04:23:11;0.90;;;0.90;;
11596;SDS011;5854;48.072;16.286;2023-02-18T04:25:38;1.27;;;0.80;;
11596;SDS011;5854;48.072;16.286;2023-02-18T04:28:05;2.65;;;1.27;;
11596;SDS011;5854;48.072;16.286;2023-02-18T04:30:36;1.10;;;1.00;;
11596;SDS011;5854;48.072;16.286;2023-02-18T04:33:03;0.80;;;0.80;;
11596;SDS011;5854;48.072;16.286;2023-02-18T04:35:30;1.00;;;1.00;;
11596;SDS011;5854;48.072;16.286;2023-02-18T04:37:58;1.30;;;0.90;;
11596;SDS011;5854;48.072;16.286;2023-02-18T04:40:25;0.80;;;0.80;;
11596;SDS011;5854;48.072;16.286;2023-02-18T04:42:54;1.60;;;0.90;;
11596;SDS011;5854;48.072;16.286;2023-02-18T04:45:21;1.02;;;1.02;;
11596;SDS011;5854;48.072;16.286;2023-02-18T04:47:50;0.90;;;0.80;;
11596;SDS011;5854;48.072;16.286;2023-02-18T04:50:17;0.93;;;0.90;;
11596;SDS011;5854;48.072;16.286;2023-02-18T04:52:45;0.70;;;0.70;;
11596;SDS011;5854;48.072;16.286;2023-02-18T04:55:12;3.55;;;1.00;;
11596;SDS011;5854;48.072;16.286;2023-02-18T04:57:39;0.85;;;0.70;;
11596;SDS011;5854;48.072;16.286;2023-02-18T05:00:07;0.80;;;0.80;;
11596;SDS011;5854;48.072;16.286;2023-02-18T05:02:37;0.82;;;0.80;;
11596;SDS011;5854;48.072;16.286;2023-02-18T05:05:05;0.80;;;0.80;;
11596;SDS011;5854;48.072;16.286;2023-02-18T05:07:33;1.80;;;1.05;;
11596;SDS011;5854;48.072;16.286;2023-02-18T05:10:00;0.77;;;0.73;;
11596;SDS011;5854;48.072;16.286;2023-02-18T05:12:27;1.55;;;0.82;;
11596;SDS011;5854;48.072;16.286;2023-02-18T05:14:54;1.10;;;0.90;;
11596;SDS011;5854;48.072;16.286;2023-02-18T05:17:21;0.93;;;0.88;;
11596;SDS011;5854;48.072;16.286;2023-02-18T05:19:48;0.88;;;0.70;;
11596;SDS011;5854;48.072;16.286;2023-02-18T05:22:17;0.70;;;0.68;;
11596;SDS011;5854;48.072;16.286;2023-02-18T05:24:44;0.98;;;0.85;;
11596;SDS011;5854;48.072;16.286;2023-02-18T05:27:11;0.93;;;0.90;;
11596;SDS011;5854;48.072;16.286;2023-02-18T05:29:38;0.85;;;0.85;;
11596;SDS011;5854;48.072;16.286;2023-02-18T05:32:05;0.80;;;0.80;;
11596;SDS011;5854;48.072;16.286;2023-02-18T05:34:32;1.83;;;0.80;;
11596;SDS011;5854;48.072;16.286;2023-02-18T05:36:59;0.88;;;0.73;;
11596;SDS011;5854;48.072;16.286;2023-02-18T05:39:27;0.70;;;0.70;;
11596;SDS011;5854;48.072;16.286;2023-02-18T05:41:54;0.90;;;0.77;;
11596;SDS011;5854;48.072;16.286;2023-02-18T05:44:21;1.90;;;0.98;;
11596;SDS011;5854;48.072;16.286;2023-02-18T05:47:06;0.80;;;0.80;;
11596;SDS011;5854;48.072;16.286;2023-02-18T05:49:36;1.48;;;0.80;;
11596;SDS011;5854;48.072;16.286;2023-02-18T05:52:05;1.17;;;0.98;;
11596;SDS011;5854;48.072;16.286;2023-02-18T05:54:35;2.50;;;1.08;;
11596;SDS011;5854;48.072;16.286;2023-02-18T05:57:03;0.80;;;0.80;;
11596;SDS011;5854;48.072;16.286;2023-02-18T05:59:30;2.97;;;0.77;;
11596;SDS011;5854;48.072;16.286;2023-02-18T06:01:57;0.70;;;0.70;;
11596;SDS011;5854;48.072;16.286;2023-02-18T06:04:24;0.90;;;0.88;;
11596;SDS011;5854;48.072;16.286;2023-02-18T06:06:52;0.85;;;0.70;;
11596;SDS011;5854;48.072;16.286;2023-02-18T06:09:19;0.88;;;0.80;;
11596;SDS011;5854;48.072;16.286;2023-02-18T06:11:48;1.85;;;0.88;;
11596;SDS011;5854;48.072;16.286;2023-02-18T06:14:15;0.80;;;0.80;;
11596;SDS011;5854;48.072;16.286;2023-02-18T06:16:43;0.80;;;0.70;;
11596;SDS011;5854;48.072;16.286;2023-02-18T06:19:10;0.90;;;0.80;;
11596;SDS011;5854;48.072;16.286;2023-02-18T06:21:37;1.40;;;0.85;;
11596;SDS011;5854;48.072;16.286;2023-02-18T06:24:05;1.48;;;0.75;;
11596;SDS011;5854;48.072;16.286;2023-02-18T06:26:33;0.80;;;0.80;;
11596;SDS011;5854;48.072;16.286;2023-02-18T06:29:01;0.60;;;0.60;;
11596;SDS011;5854;48.072;16.286;2023-02-18T06:31:29;1.40;;;0.90;;
11596;SDS011;5854;48.072;16.286;2023-02-18T06:33:56;0.77;;;0.77;;
11596;SDS011;5854;48.072;16.286;2023-02-18T06:36:23;0.80;;;0.80;;
11596;SDS011;5854;48.072;16.286;2023-02-18T06:38:50;1.58;;;0.73;;
11596;SDS011;5854;48.072;16.286;2023-02-18T06:41:21;0.60;;;0.60;;
11596;SDS011;5854;48.072;16.286;2023-02-18T06:43:49;1.25;;;0.60;;
11596;SDS011;5854;48.072;16.286;2023-02-18T06:46:18;1.52;;;0.68;;
11596;SDS011;5854;48.072;16.286;2023-02-18T06:48:45;1.25;;;0.65;;
11596;SDS011;5854;48.072;16.286;2023-02-18T06:51:12;0.77;;;0.77;;
11596;SDS011;5854;48.072;16.286;2023-02-18T06:53:40;0.60;;;0.60;;
11596;SDS011;5854;48.072;16.286;2023-02-18T06:56:07;0.70;;;0.70;;
11596;SDS011;5854;48.072;16.286;2023-02-18T06:58:35;0.90;;;0.90;;
11596;SDS011;5854;48.072;16.286;2023-02-18T07:01:02;1.90;;;0.85;;
11596;SDS011;5854;48.072;16.286;2023-02-18T07:03:31;1.13;;;0.77;;
11596;SDS011;5854;48.072;16.286;2023-02-18T07:05:58;0.65;;;0.65;;
11596;SDS011;5854;48.072;16.286;2023-02-18T07:08:25;0.70;;;0.70;;
11596;SDS011;5854;48.072;16.286;2023-02-18T07:10:54;0.88;;;0.88;;
11596;SDS011;5854;48.072;16.286;2023-02-18T07:13:21;1.45;;;0.80;;
11596;SDS011;5854;48.072;16.286;2023-02-18T07:15:48;0.70;;;0.70;;
11596;SDS011;5854;48.072;16.286;2023-02-18T07:18:15;0.70;;;0.70;;
11596;SDS011;5854;48.072;16.286;2023-02-18T07:20:44;1.35;;;0.80;;
11596;SDS011;5854;48.072;16.286;2023-02-18T07:23:11;1.67;;;1.23;;
11596;SDS011;5854;48.072;16.286;2023-02-18T07:25:38;0.60;;;0.60;;
11596;SDS011;5854;48.072;16.286;2023-02-18T07:28:05;0.70;;;0.70;;
11596;SDS011;5854;48.072;16.286;2023-02-18T07:30:32;2.17;;;0.60;;
11596;SDS011;5854;48.072;16.286;2023-02-18T07:32:59;0.95;;;0.75;;
11596;SDS011;5854;48.072;16.286;2023-02-18T07:35:26;2.13;;;0.90;;
11596;SDS011;5854;48.072;16.286;2023-02-18T07:37:55;0.75;;;0.75;;
11596;SDS011;5854;48.072;16.286;2023-02-18T07:40:22;0.70;;;0.70;;
11596;SDS011;5854;48.072;16.286;2023-02-18T07:42:49;0.75;;;0.75;;
11596;SDS011;5854;48.072;16.286;2023-02-18T07:45:16;1.38;;;0.90;;
11596;SDS011;5854;48.072;16.286;2023-02-18T07:47:43;1.00;;;0.82;;
11596;SDS011;5854;48.072;16.286;2023-02-18T07:50:10;1.85;;;0.98;;
11596;SDS011;5854;48.072;16.286;2023-02-18T07:52:37;0.90;;;0.90;;
11596;SDS011;5854;48.072;16.286;2023-02-18T07:55:06;1.15;;;0.90;;
11596;SDS011;5854;48.072;16.286;2023-02-18T07:57:34;2.10;;;0.88;;
11596;SDS011;5854;48.072;16.286;2023-02-18T08:00:21;1.77;;;0.80;;
11596;SDS011;5854;48.072;16.286;2023-02-18T08:02:49;3.20;;;0.93;;
11596;SDS011;5854;48.072;16.286;2023-02-18T08:05:16;2.95;;;0.80;;
11596;SDS011;5854;48.072;16.286;2023-02-18T08:07:43;3.17;;;0.90;;
11596;SDS011;5854;48.072;16.286;2023-02-18T08:10:12;1.00;;;0.68;;
11596;SDS011;5854;48.072;16.286;2023-02-18T08:12:39;1.55;;;0.70;;
11596;SDS011;5854;48.072;16.286;2023-02-18T08:15:06;3.05;;;0.73;;
11596;SDS011;5854;48.072;16.286;2023-02-18T08:17:34;0.80;;;0.80;;
11596;SDS011;5854;48.072;16.286;2023-02-18T08:20:01;0.70;;;0.70;;
11596;SDS011;5854;48.072;16.286;2023-02-18T08:22:28;0.60;;;0.60;;
11596;SDS011;5854;48.072;16.286;2023-02-18T08:24:55;1.27;;;0.80;;
11596;SDS011;5854;48.072;16.286;2023-02-18T08:27:23;0.70;;;0.70;;
11596;SDS011;5854;48.072;16.286;2023-02-18T08:29:50;1.30;;;0.70;;
11596;SDS011;5854;48.072;16.286;2023-02-18T08:32:18;0.70;;;0.70;;
11596;SDS011;5854;48.072;16.286;2023-02-18T08:34:45;0.77;;;0.77;;
11596;SDS011;5854;48.072;16.286;2023-02-18T08:37:12;0.60;;;0.60;;
11596;SDS011;5854;48.072;16.286;2023-02-18T08:39:39;1.17;;;0.90;;
11596;SDS011;5854;48.072;16.286;2023-02-18T08:42:06;1.10;;;0.80;;
11596;SDS011;5854;48.072;16.286;2023-02-18T08:44:35;1.30;;;0.80;;
11596;SDS011;5854;48.072;16.286;2023-02-18T08:47:01;0.90;;;0.82;;
11596;SDS011;5854;48.072;16.286;2023-02-18T08:49:29;1.00;;;0.90;;
11596;SDS011;5854;48.072;16.286;2023-02-18T08:51:56;1.08;;;0.80;;
11596;SDS011;5854;48.072;16.286;2023-02-18T08:54:23;1.42;;;0.77;;
11596;SDS011;5854;48.072;16.286;2023-02-18T08:56:52;1.20;;;0.80;;
11596;SDS011;5854;48.072;16.286;2023-02-18T08:59:21;1.00;;;0.90;;
11596;SDS011;5854;48.072;16.286;2023-02-18T09:01:50;0.73;;;0.70;;
11596;SDS011;5854;48.072;16.286;2023-02-18T09:04:18;0.70;;;0.70;;
11596;SDS011;5854;48.072;16.286;2023-02-18T09:06:45;0.75;;;0.75;;
11596;SDS011;5854;48.072;16.286;2023-02-18T09:09:12;0.60;;;0.60;;
11596;SDS011;5854;48.072;16.286;2023-02-18T09:11:39;1.23;;;0.90;;
11596;SDS011;5854;48.072;16.286;2023-02-18T09:14:06;0.73;;;0.70;;
11596;SDS011;5854;48.072;16.286;2023-02-18T09:16:34;1.88;;;0.93;;
11596;SDS011;5854;48.072;16.286;2023-02-18T09:19:03;0.60;;;0.60;;
11596;SDS011;5854;48.072;16.286;2023-02-18T09:21:31;0.80;;;0.80;;
11596;SDS011;5854;48.072;16.286;2023-02-18T09:23:58;0.60;;;0.60;;
11596;SDS011;5854;48.072;16.286;2023-02-18T09:26:26;2.25;;;0.70;;
11596;SDS011;5854;48.072;16.286;2023-02-18T09:28:53;0.77;;;0.77;;
11596;SDS011;5854;48.072;16.286;2023-02-18T09:31:22;1.13;;;0.70;;
11596;SDS011;5854;48.072;16.286;2023-02-18T09:33:52;0.50;;;0.50;;
11596;SDS011;5854;48.072;16.286;2023-02-18T09:36:23;3.63;;;0.90;;
11596;SDS011;5854;48.072;16.286;2023-02-18T09:38:50;0.70;;;0.70;;
11596;SDS011;5854;48.072;16.286;2023-02-18T09:41:21;0.70;;;0.70;;
11596;SDS011;5854;48.072;16.286;2023-02-18T09:44:00;3.40;;;0.80;;
11596;SDS011;5854;48.072;16.286;2023-02-18T09:46:31;1.02;;;0.60;;
11596;SDS011;5854;48.072;16.286;2023-02-18T09:49:01;0.65;;;0.65;;
11596;SDS011;5854;48.072;16.286;2023-02-18T09:51:31;0.60;;;0.60;;
11596;SDS011;5854;48.072;16.286;2023-02-18T09:53:58;0.60;;;0.60;;
11596;SDS011;5854;48.072;16.286;2023-02-18T09:56:26;0.75;;;0.60;;
11596;SDS011;5854;48.072;16.286;2023-02-18T09:58:56;0.70;;;0.70;;
11596;SDS011;5854;48.072;16.286;2023-02-18T10:01:27;0.68;;;0.68;;
11596;SDS011;5854;48.072;16.286;2023-02-18T10:03:59;0.50;;;0.50;;
11596;SDS011;5854;48.072;16.286;2023-02-18T10:06:31;0.60;;;0.60;;
11596;SDS011;5854;48.072;16.286;2023-02-18T10:09:00;0.50;;;0.50;;
11596;SDS011;5854;48.072;16.286;2023-02-18T10:11:31;1.23;;;0.70;;
11596;SDS011;5854;48.072;16.286;2023-02-18T10:14:02;2.25;;;0.60;;
11596;SDS011;5854;48.072;16.286;2023-02-18T10:16:35;0.95;;;0.60;;
11596;SDS011;5854;48.072;16.286;2023-02-18T10:19:03;0.80;;;0.60;;
11596;SDS011;5854;48.072;16.286;2023-02-18T10:21:48;0.60;;;0.60;;
11596;SDS011;5854;48.072;16.286;2023-02-18T10:24:19;0.60;;;0.60;;
11596;SDS011;5854;48.072;16.286;2023-02-18T10:26:55;1.40;;;0.60;;
11596;SDS011;5854;48.072;16.286;2023-02-18T10:29:24;0.75;;;0.70;;
11596;SDS011;5854;48.072;16.286;2023-02-18T10:31:54;0.50;;;0.50;;
11596;SDS011;5854;48.072;16.286;2023-02-18T10:34:29;0.65;;;0.65;;
11596;SDS011;5854;48.072;16.286;2023-02-18T10:37:10;0.68;;;0.68;;
11596;SDS011;5854;48.072;16.286;2023-02-18T10:40:08;0.63;;;0.60;;
11596;SDS011;5854;48.072;16.286;2023-02-18T10:42:44;1.58;;;0.60;;
11596;SDS011;5854;48.072;16.286;2023-02-18T10:45:24;0.60;;;0.60;;
11596;SDS011;5854;48.072;16.286;2023-02-18T10:48:05;0.70;;;0.57;;
11596;SDS011;5854;48.072;16.286;2023-02-18T10:50:51;1.58;;;0.63;;
11596;SDS011;5854;48.072;16.286;2023-02-18T10:53:23;0.82;;;0.52;;
11596;SDS011;5854;48.072;16.286;2023-02-18T10:55:58;0.60;;;0.50;;
11596;SDS011;5854;48.072;16.286;2023-02-18T10:58:27;0.80;;;0.68;;
11596;SDS011;5854;48.072;16.286;2023-02-18T11:00:59;0.50;;;0.50;;
11596;SDS011;5854;48.072;16.286;2023-02-18T11:03:37;1.17;;;0.60;;
11596;SDS011;5854;48.072;16.286;2023-02-18T11:06:14;0.50;;;0.50;;
11596;SDS011;5854;48.072;16.286;2023-02-18T11:08:47;0.50;;;0.50;;
11596;SDS011;5854;48.072;16.286;2023-02-18T11:11:16;0.60;;;0.60;;
11596;SDS011;5854;48.072;16.286;2023-02-18T11:13:53;0.75;;;0.60;;
11596;SDS011;5854;48.072;16.286;2023-02-18T11:16:22;0.95;;;0.60;;
11596;SDS011;5854;48.072;16.286;2023-02-18T11:19:01;1.08;;;0.68;;
11596;SDS011;5854;48.072;16.286;2023-02-18T11:21:29;0.88;;;0.65;;
11596;SDS011;5854;48.072;16.286;2023-02-18T11:24:07;0.82;;;0.50;;
11596;SDS011;5854;48.072;16.286;2023-02-18T11:26:41;2.08;;;0.60;;
11596;SDS011;5854;48.072;16.286;2023-02-18T11:29:13;0.82;;;0.70;;
11596;SDS011;5854;48.072;16.286;2023-02-18T11:31:46;0.63;;;0.63;;
11596;SDS011;5854;48.072;16.286;2023-02-18T11:34:17;0.70;;;0.70;;
11596;SDS011;5854;48.072;16.286;2023-02-18T11:36:48;1.00;;;0.60;;
11596;SDS011;5854;48.072;16.286;2023-02-18T11:39:19;0.82;;;0.70;;
11596;SDS011;5854;48.072;16.286;2023-02-18T11:41:53;1.15;;;0.60;;
11596;SDS011;5854;48.072;16.286;2023-02-18T11:46:58;0.77;;;0.70;;
11596;SDS011;5854;48.072;16.286;2023-02-18T11:49:28;0.70;;;0.70;;
11596;SDS011;5854;48.072;16.286;2023-02-18T11:52:08;0.63;;;0.57;;
11596;SDS011;5854;48.072;16.286;2023-02-18T11:54:57;0.75;;;0.68;;
11596;SDS011;5854;48.072;16.286;2023-02-18T11:57:26;0.40;;;0.40;;
11596;SDS011;5854;48.072;16.286;2023-02-18T11:59:54;0.77;;;0.60;;
11596;SDS011;5854;48.072;16.286;2023-02-18T12:02:27;0.90;;;0.80;;
11596;SDS011;5854;48.072;16.286;2023-02-18T12:05:00;0.80;;;0.70;;
11596;SDS011;5854;48.072;16.286;2023-02-18T12:07:33;0.57;;;0.57;;
11596;SDS011;5854;48.072;16.286;2023-02-18T12:10:13;0.60;;;0.60;;
11596;SDS011;5854;48.072;16.286;2023-02-18T12:12:46;0.80;;;0.68;;
11596;SDS011;5854;48.072;16.286;2023-02-18T12:15:19;0.50;;;0.50;;
11596;SDS011;5854;48.072;16.286;2023-02-18T12:18:01;0.50;;;0.50;;
11596;SDS011;5854;48.072;16.286;2023-02-18T12:20:53;0.60;;;0.60;;
11596;SDS011;5854;48.072;16.286;2023-02-18T12:23:37;0.50;;;0.50;;
11596;SDS011;5854;48.072;16.286;2023-02-18T12:26:23;0.50;;;0.50;;
11596;SDS011;5854;48.072;16.286;2023-02-18T12:28:58;0.57;;;0.57;;
11596;SDS011;5854;48.072;16.286;2023-02-18T12:31:44;0.70;;;0.57;;
11596;SDS011;5854;48.072;16.286;2023-02-18T12:34:42;2.03;;;0.65;;
11596;SDS011;5854;48.072;16.286;2023-02-18T12:37:31;1.60;;;0.70;;
11596;SDS011;5854;48.072;16.286;2023-02-18T12:40:29;0.77;;;0.70;;
11596;SDS011;5854;48.072;16.286;2023-02-18T12:43:15;2.22;;;0.60;;
11596;SDS011;5854;48.072;16.286;2023-02-18T12:46:00;0.50;;;0.50;;
11596;SDS011;5854;48.072;16.286;2023-02-18T12:51:37;1.92;;;0.50;;
11596;SDS011;5854;48.072;16.286;2023-02-18T12:57:21;2.03;;;0.75;;
11596;SDS011;5854;48.072;16.286;2023-02-18T13:06:56;11.35;;;1.05;;
11596;SDS011;5854;48.072;16.286;2023-02-18T13:13:16;0.43;;;0.40;;
11596;SDS011;5854;48.072;16.286;2023-02-18T13:15:47;0.60;;;0.50;;
11596;SDS011;5854;48.072;16.286;2023-02-18T13:18:19;15.60;;;1.40;;
11596;SDS011;5854;48.072;16.286;2023-02-18T13:20:51;2.72;;;0.43;;
11596;SDS011;5854;48.072;16.286;2023-02-18T13:23:22;0.65;;;0.65;;
11596;SDS011;5854;48.072;16.286;2023-02-18T13:25:55;0.57;;;0.50;;
11596;SDS011;5854;48.072;16.286;2023-02-18T13:28:27;1.08;;;0.70;;
11596;SDS011;5854;48.072;16.286;2023-02-18T13:31:06;3.78;;;0.60;;
11596;SDS011;5854;48.072;16.286;2023-02-18T13:33:49;1.92;;;0.40;;
11596;SDS011;5854;48.072;16.286;2023-02-18T13:36:27;0.77;;;0.70;;
11596;SDS011;5854;48.072;16.286;2023-02-18T13:39:06;1.38;;;0.60;;
11596;SDS011;5854;48.072;16.286;2023-02-18T13:41:36;0.93;;;0.60;;
11596;SDS011;5854;48.072;16.286;2023-02-18T13:44:08;0.60;;;0.60;;
11596;SDS011;5854;48.072;16.286;2023-02-18T13:47:29;3.20;;;0.70;;
11596;SDS011;5854;48.072;16.286;2023-02-18T13:50:27;0.82;;;0.60;;
11596;SDS011;5854;48.072;16.286;2023-02-18T13:55:59;0.40;;;0.40;;
11596;SDS011;5854;48.072;16.286;2023-02-18T13:58:30;2.50;;;0.50;;
11596;SDS011;5854;48.072;16.286;2023-02-18T14:01:05;0.50;;;0.50;;
11596;SDS011;5854;48.072;16.286;2023-02-18T14:03:52;0.90;;;0.40;;
11596;SDS011;5854;48.072;16.286;2023-02-18T14:06:23;0.30;;;0.30;;
11596;SDS011;5854;48.072;16.286;2023-02-18T14:09:02;1.42;;;0.50;;
11596;SDS011;5854;48.072;16.286;2023-02-18T14:12:15;0.70;;;0.65;;
11596;SDS011;5854;48.072;16.286;2023-02-18T14:14:51;0.60;;;0.50;;
11596;SDS011;5854;48.072;16.286;2023-02-18T14:20:26;0.40;;;0.40;;
11596;SDS011;5854;48.072;16.286;2023-02-18T14:23:11;0.50;;;0.50;;
11596;SDS011;5854;48.072;16.286;2023-02-18T14:26:06;0.95;;;0.40;;
11596;SDS011;5854;48.072;16.286;2023-02-18T14:28:43;1.63;;;0.50;;
11596;SDS011;5854;48.072;16.286;2023-02-18T14:31:32;1.65;;;0.50;;
11596;SDS011;5854;48.072;16.286;2023-02-18T14:34:15;0.60;;;0.50;;
11596;SDS011;5854;48.072;16.286;2023-02-18T14:37:19;1.00;;;0.55;;
11596;SDS011;5854;48.072;16.286;2023-02-18T14:40:14;1.75;;;1.02;;
11596;SDS011;5854;48.072;16.286;2023-02-18T14:43:01;1.05;;;0.45;;
11596;SDS011;5854;48.072;16.286;2023-02-18T14:48:49;1.13;;;0.70;;
11596;SDS011;5854;48.072;16.286;2023-02-18T14:52:11;0.50;;;0.40;;
11596;SDS011;5854;48.072;16.286;2023-02-18T14:54:45;2.45;;;0.45;;
11596;SDS011;5854;48.072;16.286;2023-02-18T14:57:13;0.82;;;0.82;;
11596;SDS011;5854;48.072;16.286;2023-02-18T14:59:45;0.98;;;0.88;;
11596;SDS011;5854;48.072;16.286;2023-02-18T15:02:17;0.50;;;0.50;;
11596;SDS011;5854;48.072;16.286;2023-02-18T15:04:46;0.47;;;0.47;;
11596;SDS011;5854;48.072;16.286;2023-02-18T15:07:17;2.42;;;0.40;;
11596;SDS011;5854;48.072;16.286;2023-02-18T15:09:45;0.52;;;0.40;;
11596;SDS011;5854;48.072;16.286;2023-02-18T15:12:15;0.40;;;0.40;;
11596;SDS011;5854;48.072;16.286;2023-02-18T15:14:46;0.47;;;0.43;;
11596;SDS011;5854;48.072;16.286;2023-02-18T15:19:46;0.55;;;0.55;;
11596;SDS011;5854;48.072;16.286;2023-02-18T15:22:17;0.50;;;0.50;;
11596;SDS011;5854;48.072;16.286;2023-02-18T15:24:47;0.85;;;0.40;;
11596;SDS011;5854;48.072;16.286;2023-02-18T15:27:16;0.40;;;0.40;;
11596;SDS011;5854;48.072;16.286;2023-02-18T15:29:49;0.68;;;0.40;;
11596;SDS011;5854;48.072;16.286;2023-02-18T15:32:20;0.50;;;0.50;;
11596;SDS011;5854;48.072;16.286;2023-02-18T15:34:51;0.95;;;0.50;;
11596;SDS011;5854;48.072;16.286;2023-02-18T15:37:20;0.65;;;0.40;;
11596;SDS011;5854;48.072;16.286;2023-02-18T15:39:47;0.50;;;0.50;;
11596;SDS011;5854;48.072;16.286;2023-02-18T15:42:17;0.68;;;0.50;;
11596;SDS011;5854;48.072;16.286;2023-02-18T15:44:54;0.40;;;0.40;;
11596;SDS011;5854;48.072;16.286;2023-02-18T15:47:23;0.90;;;0.50;;
11596;SDS011;5854;48.072;16.286;2023-02-18T15:49:51;0.88;;;0.52;;
11596;SDS011;5854;48.072;16.286;2023-02-18T15:52:23;0.40;;;0.40;;
11596;SDS011;5854;48.072;16.286;2023-02-18T15:54:53;0.60;;;0.50;;
11596;SDS011;5854;48.072;16.286;2023-02-18T15:57:21;0.52;;;0.50;;
11596;SDS011;5854;48.072;16.286;2023-02-18T15:59:55;1.00;;;0.50;;
11596;SDS011;5854;48.072;16.286;2023-02-18T16:02:28;0.60;;;0.60;;
11596;SDS011;5854;48.072;16.286;2023-02-18T16:04:59;0.50;;;0.50;;
11596;SDS011;5854;48.072;16.286;2023-02-18T16:07:28;1.27;;;0.50;;
11596;SDS011;5854;48.072;16.286;2023-02-18T16:10:08;0.50;;;0.50;;